createdAt,value
2023-04-06T00:01:55.154Z,3.30
2023-04-06T00:04:21.828Z,3.40
2023-04-06T00:06:48.510Z,3.63
2023-04-06T00:09:15.177Z,3.67
2023-04-06T00:11:41.892Z,4.23
2023-04-06T00:14:08.574Z,2.93
2023-04-06T00:16:36.658Z,3.60
2023-04-06T00:19:03.456Z,4.20
2023-04-06T00:21:30.193Z,3.10
2023-04-06T00:23:56.889Z,3.40
2023-04-06T00:26:23.583Z,3.43
2023-04-06T00:28:50.252Z,3.20
2023-04-06T00:31:16.910Z,5.07
2023-04-06T00:33:44.962Z,3.07
2023-04-06T00:36:11.639Z,3.40
2023-04-06T00:38:38.403Z,4.37
2023-04-06T00:41:05.275Z,4.27
2023-04-06T00:43:32.787Z,4.30
2023-04-06T00:45:59.465Z,2.90
2023-04-06T00:48:26.192Z,3.10
2023-04-06T00:50:54.277Z,3.23
2023-04-06T00:53:20.955Z,4.33
2023-04-06T00:55:47.568Z,3.87
2023-04-06T00:58:14.255Z,3.03
2023-04-06T01:00:40.994Z,3.57
2023-04-06T01:03:08.567Z,3.70
2023-04-06T01:05:35.642Z,4.60
2023-04-06T01:08:03.704Z,4.63
2023-04-06T01:10:30.456Z,4.93
2023-04-06T01:12:57.126Z,5.00
2023-04-06T01:15:25.131Z,4.00
2023-04-06T01:17:51.916Z,3.77
2023-04-06T01:20:18.848Z,3.50
2023-04-06T01:22:46.932Z,3.70
2023-04-06T01:25:13.595Z,3.80
2023-04-06T01:27:40.280Z,3.37
2023-04-06T01:30:08.340Z,4.30
2023-04-06T01:32:35.154Z,3.97
2023-04-06T01:35:01.893Z,4.20
2023-04-06T01:37:28.632Z,4.70
2023-04-06T01:39:56.693Z,4.83
2023-04-06T01:42:23.461Z,5.40
2023-04-06T01:44:50.166Z,4.40
2023-04-06T01:47:16.836Z,4.40
2023-04-06T01:49:43.557Z,4.10
2023-04-06T01:52:10.321Z,5.20
2023-04-06T01:54:37.061Z,4.93
2023-04-06T01:57:05.197Z,4.03
2023-04-06T01:59:32.045Z,4.13
2023-04-06T02:01:58.799Z,4.53
2023-04-06T02:04:25.501Z,5.37
2023-04-06T02:06:52.257Z,5.80
2023-04-06T02:09:18.894Z,4.37
2023-04-06T02:11:45.614Z,4.50
2023-04-06T02:14:13.672Z,4.27
2023-04-06T02:16:40.431Z,4.60
2023-04-06T02:19:07.389Z,3.90
2023-04-06T02:21:34.589Z,4.00
2023-04-06T02:24:01.274Z,4.10
2023-04-06T02:26:28.006Z,5.20
2023-04-06T02:28:54.745Z,3.80
2023-04-06T02:31:22.790Z,3.90
2023-04-06T02:33:49.478Z,4.03
2023-04-06T02:36:16.228Z,3.57
2023-04-06T02:38:43.017Z,3.60
2023-04-06T02:41:10.142Z,3.33
2023-04-06T02:43:36.844Z,4.03
2023-04-06T02:46:03.724Z,3.37
2023-04-06T02:48:31.888Z,3.73
2023-04-06T02:50:58.559Z,3.30
2023-04-06T02:53:25.237Z,3.40
2023-04-06T02:55:51.959Z,3.53
2023-04-06T02:58:18.609Z,3.03
2023-04-06T03:00:46.221Z,2.53
2023-04-06T03:03:13.022Z,3.40
2023-04-06T03:05:41.098Z,3.53
2023-04-06T03:08:07.795Z,3.50
2023-04-06T03:10:34.463Z,3.47
2023-04-06T03:13:01.158Z,2.80
2023-04-06T03:15:27.849Z,3.20
2023-04-06T03:17:54.631Z,3.53
2023-04-06T03:20:21.351Z,3.30
2023-04-06T03:22:49.351Z,2.77
2023-04-06T03:25:16.166Z,2.83
2023-04-06T03:27:42.888Z,3.70
2023-04-06T03:30:10.391Z,3.53
2023-04-06T03:32:37.172Z,4.23
2023-04-06T03:35:04.413Z,3.80
2023-04-06T03:37:31.113Z,4.13
2023-04-06T03:39:59.139Z,3.07
2023-04-06T03:42:25.936Z,3.57
2023-04-06T03:44:52.635Z,4.93
2023-04-06T03:47:19.622Z,3.83
2023-04-06T03:49:46.331Z,4.80
2023-04-06T03:52:13.042Z,3.77
2023-04-06T03:54:39.696Z,3.83
2023-04-06T03:57:07.888Z,4.30
2023-04-06T03:59:34.662Z,4.37
2023-04-06T04:02:01.450Z,4.23
2023-04-06T04:04:28.138Z,4.77
2023-04-06T04:06:54.831Z,3.97
2023-04-06T04:09:21.481Z,3.77
2023-04-06T04:11:48.196Z,3.50
2023-04-06T04:14:16.224Z,4.00
2023-04-06T04:16:43.092Z,3.47
2023-04-06T04:19:10.255Z,3.33
2023-04-06T04:21:43.962Z,3.40
2023-04-06T04:24:10.804Z,2.37
2023-04-06T04:26:38.020Z,2.93
2023-04-06T04:29:04.924Z,3.20
2023-04-06T04:31:33.146Z,4.37
2023-04-06T04:34:01.138Z,3.50
2023-04-06T04:36:27.810Z,3.07
2023-04-06T04:38:54.857Z,3.70
2023-04-06T04:41:21.569Z,2.90
2023-04-06T04:43:48.246Z,3.10
2023-04-06T04:46:14.957Z,3.37
2023-04-06T04:48:43.075Z,3.47
2023-04-06T04:51:09.781Z,3.90
2023-04-06T04:53:36.491Z,3.80
2023-04-06T04:56:03.463Z,3.70
2023-04-06T04:58:30.160Z,4.67
2023-04-06T05:00:56.875Z,4.37
2023-04-06T05:03:26.586Z,4.80
2023-04-06T05:05:54.790Z,4.03
2023-04-06T05:08:21.549Z,5.47
2023-04-06T05:10:49.264Z,4.43
2023-04-06T05:13:16.231Z,4.70
2023-04-06T05:15:43.294Z,4.40
2023-04-06T05:18:10.750Z,4.00
2023-04-06T05:20:38.953Z,5.87
2023-04-06T05:23:07.029Z,5.27
2023-04-06T05:25:33.909Z,5.37
2023-04-06T05:28:01.038Z,5.40
2023-04-06T05:30:27.795Z,4.93
2023-04-06T05:32:55.057Z,5.10
2023-04-06T05:35:21.788Z,6.50
2023-04-06T05:37:48.509Z,4.97
2023-04-06T05:40:16.657Z,4.90
2023-04-06T05:42:43.963Z,4.03
2023-04-06T05:45:11.944Z,5.83
2023-04-06T05:47:38.656Z,4.70
2023-04-06T05:50:06.598Z,4.47
2023-04-06T05:52:33.983Z,5.13
2023-04-06T05:55:00.647Z,5.03
2023-04-06T05:57:28.799Z,3.83
2023-04-06T05:59:55.520Z,5.10
2023-04-06T06:02:22.505Z,4.40
2023-04-06T06:04:49.679Z,4.60
2023-04-06T06:07:16.471Z,5.10
2023-04-06T06:09:43.304Z,6.60
2023-04-06T06:12:12.043Z,4.50
2023-04-06T06:14:43.469Z,5.00
2023-04-06T06:18:12.758Z,6.37
2023-04-06T06:19:58.323Z,4.77
2023-04-06T06:22:25.010Z,6.53
2023-04-06T06:24:51.770Z,5.97
2023-04-06T06:27:18.446Z,5.03
2023-04-06T06:29:46.515Z,4.87
2023-04-06T06:32:13.225Z,5.27
2023-04-06T06:34:39.899Z,8.20
2023-04-06T06:37:07.026Z,6.80
2023-04-06T06:39:33.773Z,6.03
2023-04-06T06:42:00.587Z,5.90
2023-04-06T06:44:27.441Z,6.37
2023-04-06T06:46:55.471Z,6.70
2023-04-06T06:49:22.298Z,5.03
2023-04-06T06:51:49.070Z,5.30
2023-04-06T06:54:15.754Z,5.50
2023-04-06T06:56:42.484Z,5.33
2023-04-06T06:59:09.373Z,5.07
2023-04-06T07:01:37.009Z,5.80
2023-04-06T07:04:05.705Z,4.60
2023-04-06T07:06:32.487Z,6.73
2023-04-06T07:08:59.216Z,6.87
2023-04-06T07:11:26.011Z,5.87
2023-04-06T07:13:52.760Z,6.27
2023-04-06T07:16:19.476Z,5.60
2023-04-06T07:18:46.338Z,5.80
2023-04-06T07:21:14.366Z,6.37
2023-04-06T07:23:41.066Z,5.47
2023-04-06T07:26:07.920Z,7.00
2023-04-06T07:28:34.606Z,5.13
2023-04-06T07:31:01.371Z,7.47
2023-04-06T07:33:28.048Z,5.13
2023-04-06T07:35:54.760Z,6.10
2023-04-06T07:38:22.853Z,5.60
2023-04-06T07:40:49.568Z,5.47
2023-04-06T07:43:16.518Z,5.67
2023-04-06T07:45:43.364Z,5.47
2023-04-06T07:48:10.132Z,7.30
2023-04-06T07:50:36.856Z,5.53
2023-04-06T07:53:03.649Z,7.07
2023-04-06T07:55:31.695Z,7.53
2023-04-06T07:57:58.455Z,6.50
2023-04-06T08:00:25.346Z,6.63
2023-04-06T08:02:52.136Z,6.90
2023-04-06T08:05:18.966Z,6.87
2023-04-06T08:07:45.680Z,8.10
2023-04-06T08:10:12.453Z,6.73
2023-04-06T08:12:40.617Z,8.10
2023-04-06T08:15:07.865Z,6.00
2023-04-06T08:17:34.662Z,6.60
2023-04-06T08:20:01.614Z,5.90
2023-04-06T08:22:28.417Z,6.97
2023-04-06T08:24:55.122Z,6.10
2023-04-06T08:27:21.845Z,5.93
2023-04-06T08:29:50.979Z,6.80
2023-04-06T08:32:17.701Z,6.00
2023-04-06T08:34:44.493Z,7.70
2023-04-06T08:37:11.203Z,7.30
2023-04-06T08:39:37.998Z,8.07
2023-04-06T08:42:04.753Z,9.07
2023-04-06T08:44:33.211Z,7.60
2023-04-06T08:47:02.169Z,7.83
2023-04-06T08:49:29.443Z,7.40
2023-04-06T08:51:56.516Z,7.30
2023-04-06T08:54:23.260Z,6.90
2023-04-06T08:56:50.187Z,7.40
2023-04-06T08:59:17.237Z,7.80
2023-04-06T09:01:45.595Z,8.40
2023-04-06T09:04:14.149Z,7.50
2023-04-06T09:06:41.609Z,6.80
2023-04-06T09:09:08.861Z,7.60
2023-04-06T09:11:46.132Z,7.93
2023-04-06T09:14:13.266Z,8.00
2023-04-06T09:16:41.198Z,6.57
2023-04-06T09:19:08.406Z,8.90
2023-04-06T09:21:36.710Z,6.90
2023-04-06T09:24:04.359Z,7.70
2023-04-06T09:26:31.318Z,7.83
2023-04-06T09:28:59.399Z,7.67
2023-04-06T09:31:27.786Z,7.80
2023-04-06T09:33:55.309Z,8.97
2023-04-06T09:36:31.364Z,8.20
2023-04-06T09:39:00.821Z,7.87
2023-04-06T09:41:29.870Z,8.40
2023-04-06T09:44:04.894Z,8.03
2023-04-06T09:46:43.032Z,8.40
2023-04-06T09:49:19.308Z,6.80
2023-04-06T09:51:47.713Z,7.80
2023-04-06T09:54:21.533Z,7.87
2023-04-06T09:56:52.522Z,6.97
2023-04-06T09:59:26.821Z,7.37
2023-04-06T10:01:56.534Z,7.20
2023-04-06T10:04:32.536Z,8.23
2023-04-06T10:07:00.814Z,8.40
2023-04-06T10:09:31.432Z,7.87
2023-04-06T10:11:59.713Z,7.13
2023-04-06T10:14:26.685Z,8.17
2023-04-06T10:16:53.546Z,7.10
2023-04-06T10:19:27.133Z,7.27
2023-04-06T10:21:58.723Z,7.10
2023-04-06T10:24:25.439Z,8.83
2023-04-06T10:27:01.688Z,6.50
2023-04-06T10:29:28.745Z,6.97
2023-04-06T10:31:55.714Z,7.90
2023-04-06T10:34:23.817Z,6.00
2023-04-06T10:36:50.513Z,6.90
2023-04-06T10:39:25.635Z,7.60
2023-04-06T10:41:52.350Z,7.10
2023-04-06T10:44:21.627Z,7.37
2023-04-06T10:46:54.328Z,7.30
2023-04-06T10:49:21.758Z,7.07
2023-04-06T10:51:52.955Z,6.73
2023-04-06T10:54:21.835Z,8.03
2023-04-06T10:56:48.560Z,7.07
2023-04-06T10:59:21.785Z,7.40
2023-04-06T11:01:49.099Z,6.97
2023-04-06T11:04:17.699Z,6.37
2023-04-06T11:06:48.166Z,6.13
2023-04-06T11:09:24.905Z,7.10
2023-04-06T11:11:51.840Z,7.20
2023-04-06T11:14:18.578Z,7.50
2023-04-06T11:16:47.992Z,8.30
2023-04-06T11:19:14.836Z,7.57
2023-04-06T11:21:43.395Z,8.50
2023-04-06T11:24:11.551Z,9.90
2023-04-06T11:26:40.259Z,9.43
2023-04-06T11:29:07.233Z,7.87
2023-04-06T11:31:49.076Z,8.83
2023-04-06T11:34:21.175Z,8.97
2023-04-06T11:36:48.951Z,7.67
2023-04-06T11:39:20.254Z,8.30
2023-04-06T11:41:49.339Z,9.70
2023-04-06T11:44:16.399Z,9.23
2023-04-06T11:46:52.976Z,10.57
2023-04-06T11:49:21.294Z,10.93
2023-04-06T11:51:48.002Z,12.00
2023-04-06T11:54:14.839Z,9.67
2023-04-06T11:56:41.695Z,10.37
2023-04-06T11:59:08.639Z,10.07
2023-04-06T12:01:45.501Z,8.13
2023-04-06T12:04:12.294Z,8.87
2023-04-06T12:06:40.507Z,10.50
2023-04-06T12:09:07.340Z,11.87
2023-04-06T12:11:34.291Z,9.13
2023-04-06T12:14:02.370Z,10.87
2023-04-06T12:16:29.931Z,11.27
2023-04-06T12:18:56.751Z,10.33
2023-04-06T12:21:23.465Z,10.70
2023-04-06T12:23:51.560Z,10.77
2023-04-06T12:26:23.254Z,10.43
2023-04-06T12:28:50.022Z,10.83
2023-04-06T12:31:17.106Z,11.20
2023-04-06T12:33:43.930Z,10.80
2023-04-06T12:36:12.942Z,10.80
2023-04-06T12:38:39.776Z,11.27
2023-04-06T12:41:08.246Z,9.73
2023-04-06T12:43:35.043Z,9.50
2023-04-06T12:46:01.731Z,8.47
2023-04-06T12:48:28.408Z,7.20
2023-04-06T12:50:55.895Z,9.97
2023-04-06T12:53:22.551Z,11.10
2023-04-06T12:55:49.232Z,10.57
2023-04-06T12:58:17.686Z,10.37
2023-04-06T13:00:44.431Z,10.87
2023-04-06T13:03:11.134Z,8.33
2023-04-06T13:05:44.542Z,9.57
2023-04-06T13:08:11.397Z,8.63
2023-04-06T13:10:38.071Z,9.27
2023-04-06T13:13:04.900Z,9.20
2023-04-06T13:15:32.931Z,9.87
2023-04-06T13:17:59.652Z,9.50
2023-04-06T13:20:26.330Z,9.23
2023-04-06T13:22:52.997Z,9.73
2023-04-06T13:25:19.688Z,10.20
2023-04-06T13:27:46.382Z,10.60
2023-04-06T13:30:16.336Z,8.70
2023-04-06T13:32:45.244Z,10.10
2023-04-06T13:35:11.958Z,8.80
2023-04-06T13:37:39.190Z,9.40
2023-04-06T13:40:07.093Z,8.70
2023-04-06T13:42:33.737Z,8.80
2023-04-06T13:45:00.454Z,8.03
2023-04-06T13:47:27.592Z,9.23
2023-04-06T13:49:55.955Z,8.50
2023-04-06T13:52:22.961Z,9.37
2023-04-06T13:54:50.068Z,9.47
2023-04-06T13:57:16.793Z,10.37
2023-04-06T14:02:11.852Z,10.20
2023-04-06T14:04:38.639Z,8.57
2023-04-06T14:07:06.715Z,9.37
2023-04-06T14:09:34.000Z,7.50
2023-04-06T14:12:00.725Z,9.63
2023-04-06T14:14:27.684Z,9.27
2023-04-06T14:16:54.430Z,8.60
2023-04-06T14:19:21.177Z,8.40
2023-04-06T14:21:48.418Z,9.07
2023-04-06T14:24:16.556Z,8.83
2023-04-06T14:26:43.338Z,7.37
2023-04-06T14:29:10.287Z,9.30
2023-04-06T14:31:37.052Z,9.50
2023-04-06T14:34:04.281Z,10.63
2023-04-06T14:36:32.921Z,8.57
2023-04-06T14:38:59.596Z,8.60
2023-04-06T14:41:27.619Z,8.20
2023-04-06T14:43:54.296Z,7.70
2023-04-06T14:46:21.036Z,7.23
2023-04-06T14:48:48.115Z,7.50
2023-04-06T14:51:15.118Z,7.90
2023-04-06T14:53:42.533Z,8.83
2023-04-06T14:56:09.289Z,7.10
2023-04-06T14:58:37.299Z,10.40
2023-04-06T15:01:04.250Z,10.03
2023-04-06T15:03:31.181Z,10.30
2023-04-06T15:05:58.630Z,9.63
2023-04-06T15:08:25.678Z,8.10
2023-04-06T15:10:53.012Z,8.67
2023-04-06T15:13:19.744Z,9.20
2023-04-06T15:15:51.096Z,10.10
2023-04-06T15:18:17.866Z,7.90
2023-04-06T15:20:44.630Z,8.13
2023-04-06T15:23:11.501Z,9.43
2023-04-06T15:25:39.477Z,8.63
2023-04-06T15:28:06.249Z,8.43
2023-04-06T15:30:33.298Z,9.77
2023-04-06T15:33:02.379Z,8.90
2023-04-06T15:35:29.393Z,9.00
2023-04-06T15:37:56.584Z,9.77
2023-04-06T15:40:23.356Z,10.60
2023-04-06T15:42:50.148Z,7.77
2023-04-06T15:45:16.882Z,7.80
2023-04-06T15:47:45.190Z,8.50
2023-04-06T15:50:14.351Z,7.97
2023-04-06T15:52:41.102Z,7.87
2023-04-06T15:55:08.878Z,8.83
2023-04-06T15:57:35.684Z,8.10
2023-04-06T16:00:03.839Z,7.20
2023-04-06T16:02:30.708Z,7.30
2023-04-06T16:04:58.365Z,7.03
2023-04-06T16:07:26.529Z,9.20
2023-04-06T16:09:53.313Z,7.23
2023-04-06T16:12:20.516Z,7.37
2023-04-06T16:14:47.836Z,8.53
2023-04-06T16:17:14.544Z,7.63
2023-04-06T16:19:41.288Z,7.80
2023-04-06T16:22:08.569Z,7.90
2023-04-06T16:24:37.486Z,7.30
2023-04-06T16:27:04.242Z,7.60
2023-04-06T16:32:58.590Z,9.33
2023-04-06T16:35:25.269Z,7.30
2023-04-06T16:37:52.006Z,6.73
2023-04-06T16:40:20.173Z,7.00
2023-04-06T16:42:46.849Z,6.77
2023-04-06T16:45:13.928Z,8.50
2023-04-06T16:47:40.651Z,7.10
2023-04-06T16:50:07.994Z,7.67
2023-04-06T16:52:34.890Z,7.90
2023-04-06T16:55:01.925Z,7.67
2023-04-06T16:57:29.983Z,7.00
2023-04-06T16:59:56.692Z,7.70
2023-04-06T17:02:23.682Z,7.27
2023-04-06T17:04:50.680Z,7.00
2023-04-06T17:07:17.430Z,7.43
2023-04-06T17:09:44.148Z,6.60
2023-04-06T17:12:10.843Z,7.53
2023-04-06T17:14:39.037Z,6.57
2023-04-06T17:17:05.767Z,8.17
2023-04-06T17:19:32.458Z,7.30
2023-04-06T17:21:59.152Z,6.77
2023-04-06T17:24:25.825Z,7.10
2023-04-06T17:26:52.514Z,8.13
2023-04-06T17:29:19.166Z,7.87
2023-04-06T17:31:47.175Z,7.17
2023-04-06T17:34:13.801Z,6.90
2023-04-06T17:36:40.444Z,7.60
2023-04-06T17:39:07.129Z,8.17
2023-04-06T17:41:33.784Z,8.87
2023-04-06T17:44:00.683Z,9.00
2023-04-06T17:46:27.526Z,7.70
2023-04-06T17:48:55.578Z,7.80
2023-04-06T17:51:22.219Z,7.70
2023-04-06T17:53:48.874Z,7.70
2023-04-06T17:56:15.582Z,8.03
2023-04-06T17:58:42.373Z,8.20
2023-04-06T18:01:09.491Z,8.57
2023-04-06T18:03:36.402Z,6.37
2023-04-06T18:06:11.655Z,7.30
2023-04-06T18:08:38.385Z,7.73
2023-04-06T18:14:33.420Z,7.43
2023-04-06T18:17:00.145Z,7.97
2023-04-06T18:19:26.804Z,7.87
2023-04-06T18:21:54.806Z,7.80
2023-04-06T18:24:37.408Z,6.73
2023-04-06T18:27:08.237Z,6.60
2023-04-06T18:29:35.025Z,6.30
2023-04-06T18:32:01.702Z,6.33
2023-04-06T18:34:28.406Z,6.83
2023-04-06T18:36:56.475Z,6.90
2023-04-06T18:39:23.184Z,7.47
2023-04-06T18:41:49.826Z,10.03
2023-04-06T18:44:16.538Z,8.33
2023-04-06T18:46:44.637Z,9.07
2023-04-06T18:49:11.670Z,6.87
2023-04-06T18:51:38.367Z,7.40
2023-04-06T18:54:06.349Z,8.13
2023-04-06T18:56:33.047Z,8.77
2023-04-06T18:58:59.754Z,8.53
2023-04-06T19:01:29.040Z,9.40
2023-04-06T19:03:56.863Z,8.17
2023-04-06T19:06:24.279Z,7.00
2023-04-06T19:08:50.995Z,7.90
2023-04-06T19:11:19.063Z,7.70
2023-04-06T19:13:45.766Z,7.57
2023-04-06T19:16:12.693Z,7.60
2023-04-06T19:18:40.067Z,8.00
2023-04-06T19:21:14.721Z,9.03
2023-04-06T19:23:41.353Z,7.90
2023-04-06T19:26:09.828Z,8.23
2023-04-06T19:28:37.851Z,7.80
2023-04-06T19:31:08.450Z,8.80
2023-04-06T19:33:35.989Z,7.80
2023-04-06T19:36:03.259Z,7.40
2023-04-06T19:38:30.289Z,8.27
2023-04-06T19:40:57.098Z,8.10
2023-04-06T19:43:23.774Z,8.10
2023-04-06T19:45:51.885Z,8.43
2023-04-06T19:48:18.707Z,8.10
2023-04-06T19:50:45.868Z,7.67
2023-04-06T19:53:12.805Z,10.97
2023-04-06T19:55:39.460Z,10.47
2023-04-06T19:58:06.247Z,8.23
2023-04-06T20:00:33.071Z,8.87
2023-04-06T20:03:01.302Z,6.97
2023-04-06T20:05:28.112Z,7.90
2023-04-06T20:07:54.782Z,8.20
2023-04-06T20:10:21.582Z,9.50
2023-04-06T20:12:48.308Z,9.43
2023-04-06T20:15:20.251Z,8.10
2023-04-06T20:17:46.962Z,8.10
2023-04-06T20:20:15.056Z,7.50
2023-04-06T20:22:41.780Z,7.23
2023-04-06T20:25:09.002Z,9.93
2023-04-06T20:27:35.644Z,7.97
2023-04-06T20:30:02.339Z,8.40
2023-04-06T20:32:29.026Z,8.37
2023-04-06T20:34:55.695Z,9.83
2023-04-06T20:37:23.673Z,9.80
2023-04-06T20:39:50.395Z,9.87
2023-04-06T20:42:17.115Z,6.60
2023-04-06T20:44:44.590Z,8.93
2023-04-06T20:47:11.265Z,7.50
2023-04-06T20:49:37.922Z,7.67
2023-04-06T20:52:04.559Z,7.60
2023-04-06T20:54:32.540Z,7.43
2023-04-06T20:56:59.803Z,7.50
2023-04-06T20:59:26.584Z,9.50
2023-04-06T21:01:53.303Z,8.10
2023-04-06T21:04:20.200Z,8.03
2023-04-06T21:06:47.055Z,8.47
2023-04-06T21:09:13.755Z,8.20
2023-04-06T21:11:41.801Z,8.43
2023-04-06T21:14:08.500Z,8.53
2023-04-06T21:16:35.154Z,8.50
2023-04-06T21:19:01.803Z,8.87
2023-04-06T21:21:28.513Z,8.07
2023-04-06T21:23:55.165Z,8.23
2023-04-06T21:26:21.894Z,8.07
2023-04-06T21:28:49.936Z,8.20
2023-04-06T21:31:16.728Z,10.20
2023-04-06T21:33:43.449Z,7.30
2023-04-06T21:36:10.190Z,9.10
2023-04-06T21:38:36.862Z,9.97
2023-04-06T21:41:03.636Z,9.70
2023-04-06T21:43:30.320Z,9.43
2023-04-06T21:45:58.317Z,9.93
2023-04-06T21:48:25.023Z,9.53
2023-04-06T21:50:51.749Z,8.50
2023-04-06T21:53:18.491Z,9.63
2023-04-06T21:55:45.730Z,7.37
2023-04-06T21:58:12.492Z,9.77
2023-04-06T22:00:39.438Z,9.60
2023-04-06T22:03:07.771Z,9.30
2023-04-06T22:05:36.630Z,9.90
2023-04-06T22:08:03.744Z,10.17
2023-04-06T22:10:30.563Z,11.40
2023-04-06T22:12:57.245Z,10.40
2023-04-06T22:15:23.998Z,11.90
2023-04-06T22:17:50.726Z,9.90
2023-04-06T22:20:18.862Z,9.90
2023-04-06T22:22:45.521Z,9.13
2023-04-06T22:25:12.244Z,10.23
2023-04-06T22:27:38.896Z,11.30
2023-04-06T22:30:06.881Z,10.03
2023-04-06T22:32:33.582Z,9.50
2023-04-06T22:35:00.354Z,10.93
2023-04-06T22:37:28.655Z,8.73
2023-04-06T22:39:55.440Z,9.97
2023-04-06T22:42:22.088Z,8.30
2023-04-06T22:44:48.822Z,9.10
2023-04-06T22:47:15.546Z,11.20
2023-04-06T22:49:42.271Z,9.30
2023-04-06T22:52:08.997Z,11.67
2023-04-06T22:54:37.121Z,12.20
2023-04-06T22:57:03.833Z,11.47
2023-04-06T22:59:30.509Z,12.60
2023-04-06T23:01:57.315Z,11.87
2023-04-06T23:04:24.247Z,10.87
2023-04-06T23:06:50.959Z,10.80
2023-04-06T23:09:17.696Z,11.43
2023-04-06T23:11:45.754Z,11.37
2023-04-06T23:14:12.486Z,11.70
2023-04-06T23:16:39.206Z,10.03
2023-04-06T23:19:05.891Z,11.93
2023-04-06T23:21:33.345Z,11.70
2023-04-06T23:24:00.668Z,11.23
2023-04-06T23:26:27.727Z,10.53
2023-04-06T23:28:55.711Z,11.47
2023-04-06T23:31:22.493Z,11.30
2023-04-06T23:33:49.341Z,11.23
2023-04-06T23:36:16.009Z,9.43
2023-04-06T23:38:42.669Z,11.00
2023-04-06T23:41:13.091Z,9.03
2023-04-06T23:43:39.776Z,10.80
2023-04-06T23:46:08.126Z,11.70
2023-04-06T23:48:34.953Z,11.33
2023-04-06T23:51:01.677Z,11.70
2023-04-06T23:53:28.370Z,11.30
2023-04-06T23:55:55.034Z,11.93
2023-04-06T23:58:21.700Z,10.90
